createdAt,value
2018-11-29T00:02:23.116Z,5.23
2018-11-29T00:04:49.912Z,5.14
2018-11-29T00:07:16.681Z,5.11
2018-11-29T00:09:43.457Z,5.11
2018-11-29T00:12:10.209Z,5.08
2018-11-29T00:14:37.007Z,5.20
2018-11-29T00:17:03.764Z,5.16
2018-11-29T00:19:30.723Z,5.04
2018-11-29T00:21:57.691Z,5.10
2018-11-29T00:24:24.540Z,4.91
2018-11-29T00:26:51.342Z,5.11
2018-11-29T00:29:18.177Z,4.93
2018-11-29T00:31:44.982Z,4.89
2018-11-29T00:34:11.821Z,4.99
2018-11-29T00:36:38.614Z,5.12
2018-11-29T00:39:06.141Z,5.00
2018-11-29T00:41:32.954Z,4.95
2018-11-29T00:43:59.770Z,5.00
2018-11-29T00:46:26.586Z,5.09
2018-11-29T00:48:53.412Z,5.13
2018-11-29T00:51:20.222Z,5.19
2018-11-29T00:53:47.026Z,5.14
2018-11-29T00:56:13.830Z,5.13
2018-11-29T00:58:40.646Z,4.85
2018-11-29T01:01:07.466Z,4.81
2018-11-29T01:03:34.369Z,4.79
2018-11-29T01:06:01.166Z,4.94
2018-11-29T01:08:27.976Z,4.74
2018-11-29T01:10:54.810Z,4.73
2018-11-29T01:13:21.616Z,4.60
2018-11-29T01:15:48.443Z,4.63
2018-11-29T01:18:15.254Z,4.63
2018-11-29T01:20:42.093Z,4.63
2018-11-29T01:23:08.885Z,4.70
2018-11-29T01:25:35.729Z,4.55
2018-11-29T01:28:02.533Z,4.53
2018-11-29T01:30:29.373Z,4.51
2018-11-29T01:32:56.193Z,4.70
2018-11-29T01:35:23.009Z,4.58
2018-11-29T01:37:49.822Z,4.49
2018-11-29T01:40:21.216Z,4.50
2018-11-29T01:42:52.265Z,4.59
2018-11-29T01:45:19.092Z,4.50
2018-11-29T01:47:45.902Z,4.45
2018-11-29T01:50:12.725Z,4.40
2018-11-29T01:52:39.514Z,4.54
2018-11-29T01:55:07.409Z,4.54
2018-11-29T01:57:34.262Z,4.51
2018-11-29T02:00:01.094Z,4.58
2018-11-29T02:02:27.909Z,4.50
2018-11-29T02:04:54.754Z,4.52
2018-11-29T02:07:21.561Z,4.57
2018-11-29T02:09:48.399Z,4.51
2018-11-29T02:12:15.206Z,4.39
2018-11-29T02:14:42.038Z,4.43
2018-11-29T02:17:08.853Z,4.34
2018-11-29T02:19:35.681Z,4.30
2018-11-29T02:22:02.477Z,4.43
2018-11-29T02:24:29.310Z,4.31
2018-11-29T02:26:56.110Z,4.61
2018-11-29T02:29:22.943Z,4.46
2018-11-29T02:31:49.759Z,4.39
2018-11-29T02:34:16.589Z,4.39
2018-11-29T02:36:43.395Z,4.59
2018-11-29T02:39:10.222Z,4.33
2018-11-29T02:41:37.031Z,4.30
2018-11-29T02:44:03.921Z,4.30
2018-11-29T02:46:30.737Z,4.15
2018-11-29T02:48:57.616Z,4.24
2018-11-29T02:51:24.427Z,4.22
2018-11-29T02:53:51.246Z,4.20
2018-11-29T02:56:18.064Z,4.14
2018-11-29T02:58:44.899Z,4.07
2018-11-29T03:01:11.710Z,4.04
2018-11-29T03:03:38.545Z,4.00
2018-11-29T03:06:05.353Z,3.94
2018-11-29T03:08:32.174Z,3.92
2018-11-29T03:10:58.959Z,3.86
2018-11-29T03:13:25.791Z,3.82
2018-11-29T03:15:52.614Z,3.84
2018-11-29T03:18:19.415Z,3.83
2018-11-29T03:20:46.250Z,3.52
2018-11-29T03:23:13.062Z,3.51
2018-11-29T03:25:39.906Z,3.58
2018-11-29T03:28:06.762Z,3.54
2018-11-29T03:30:33.590Z,3.56
2018-11-29T03:33:00.454Z,3.43
2018-11-29T03:35:27.280Z,3.27
2018-11-29T03:37:54.082Z,3.13
2018-11-29T03:40:20.909Z,3.11
2018-11-29T03:42:47.717Z,3.10
2018-11-29T03:45:15.130Z,3.02
2018-11-29T03:47:41.947Z,2.92
2018-11-29T03:50:10.861Z,2.93
2018-11-29T03:52:37.711Z,2.82
2018-11-29T03:55:05.666Z,2.80
2018-11-29T03:57:32.467Z,2.82
2018-11-29T03:59:59.294Z,2.76
2018-11-29T04:02:26.094Z,2.73
2018-11-29T04:04:52.919Z,2.69
2018-11-29T04:07:19.715Z,2.61
2018-11-29T04:09:46.553Z,2.50
2018-11-29T04:12:13.385Z,2.49
2018-11-29T04:14:40.202Z,2.51
2018-11-29T04:17:07.001Z,2.51
2018-11-29T04:19:33.836Z,2.59
2018-11-29T04:22:00.625Z,2.68
2018-11-29T04:24:27.461Z,2.74
2018-11-29T04:26:54.255Z,2.93
2018-11-29T04:29:21.071Z,2.96
2018-11-29T04:31:47.882Z,3.16
2018-11-29T04:34:14.690Z,3.01
2018-11-29T04:36:41.497Z,3.21
2018-11-29T04:39:08.366Z,3.11
2018-11-29T04:41:35.199Z,2.95
2018-11-29T04:44:02.107Z,2.89
2018-11-29T04:46:45.918Z,2.81
2018-11-29T04:49:12.755Z,3.18
2018-11-29T04:51:39.603Z,3.12
2018-11-29T04:54:07.075Z,3.20
2018-11-29T04:56:33.956Z,3.05
2018-11-29T04:59:00.729Z,3.27
2018-11-29T05:01:27.561Z,3.16
2018-11-29T05:03:54.371Z,3.08
2018-11-29T05:06:21.197Z,2.77
2018-11-29T05:08:47.979Z,2.76
2018-11-29T05:11:14.793Z,2.79
2018-11-29T05:13:41.597Z,2.96
2018-11-29T05:16:08.423Z,3.12
2018-11-29T05:18:35.237Z,3.08
2018-11-29T05:21:02.109Z,3.05
2018-11-29T05:23:28.914Z,3.05
2018-11-29T05:25:55.829Z,3.00
2018-11-29T05:28:22.646Z,3.06
2018-11-29T05:30:49.481Z,2.97
2018-11-29T05:33:16.342Z,3.52
2018-11-29T05:35:43.170Z,3.49
2018-11-29T05:38:09.975Z,3.51
2018-11-29T05:40:36.810Z,3.53
2018-11-29T05:43:03.986Z,3.50
2018-11-29T05:45:30.815Z,3.07
2018-11-29T05:47:57.618Z,3.20
2018-11-29T05:50:24.438Z,2.96
2018-11-29T05:52:51.237Z,2.97
2018-11-29T05:55:18.101Z,3.04
2018-11-29T05:57:44.852Z,3.14
2018-11-29T06:00:12.717Z,3.33
2018-11-29T06:02:39.517Z,3.47
2018-11-29T06:05:08.957Z,3.73
2018-11-29T06:07:35.789Z,3.55
2018-11-29T06:10:02.592Z,3.64
2018-11-29T06:12:29.414Z,3.42
2018-11-29T06:14:56.217Z,3.46
2018-11-29T06:17:23.061Z,3.36
2018-11-29T06:19:49.873Z,3.28
2018-11-29T06:22:16.719Z,3.38
2018-11-29T06:24:43.521Z,3.41
2018-11-29T06:27:10.345Z,3.35
2018-11-29T06:29:37.188Z,3.30
2018-11-29T06:32:04.414Z,3.00
2018-11-29T06:34:31.181Z,2.95
2018-11-29T06:36:57.974Z,2.92
2018-11-29T06:39:24.732Z,2.87
2018-11-29T06:41:51.529Z,2.77
2018-11-29T06:44:18.303Z,2.66
2018-11-29T06:46:45.084Z,2.56
2018-11-29T06:49:11.842Z,2.49
2018-11-29T06:51:38.692Z,2.45
2018-11-29T06:54:05.509Z,2.21
2018-11-29T06:56:32.297Z,2.35
2018-11-29T06:58:59.088Z,2.47
2018-11-29T07:01:25.876Z,2.47
2018-11-29T07:03:52.641Z,2.42
2018-11-29T07:06:19.436Z,2.28
2018-11-29T07:08:46.192Z,2.22
2018-11-29T07:11:12.973Z,2.45
2018-11-29T07:13:39.732Z,2.49
2018-11-29T07:16:06.538Z,2.23
2018-11-29T07:18:33.368Z,2.22
2018-11-29T07:21:11.716Z,2.27
2018-11-29T07:23:38.496Z,2.48
2018-11-29T07:26:05.556Z,2.58
2018-11-29T07:28:32.337Z,2.73
2018-11-29T07:30:59.100Z,2.79
2018-11-29T07:33:25.893Z,2.66
2018-11-29T07:35:52.660Z,3.03
2018-11-29T07:38:19.457Z,3.07
2018-11-29T07:40:46.228Z,3.28
2018-11-29T07:43:13.016Z,3.14
2018-11-29T07:45:39.797Z,3.16
2018-11-29T07:48:06.608Z,3.28
2018-11-29T07:50:33.397Z,3.25
2018-11-29T07:53:00.195Z,3.41
2018-11-29T07:55:26.960Z,3.43
2018-11-29T07:57:53.766Z,3.65
2018-11-29T08:00:20.577Z,3.63
2018-11-29T08:02:47.357Z,3.76
2018-11-29T08:05:14.610Z,3.65
2018-11-29T08:07:47.313Z,3.48
2018-11-29T08:10:11.334Z,3.53
2018-11-29T08:12:38.133Z,3.63
2018-11-29T08:15:07.384Z,3.61
2018-11-29T08:17:34.185Z,3.82
2018-11-29T08:20:00.953Z,3.86
2018-11-29T08:22:27.737Z,3.97
2018-11-29T08:24:54.542Z,4.10
2018-11-29T08:27:21.293Z,4.13
2018-11-29T08:29:48.073Z,3.98
2018-11-29T08:32:14.873Z,3.88
2018-11-29T08:34:41.673Z,4.00
2018-11-29T08:37:08.456Z,4.16
2018-11-29T08:39:35.225Z,4.04
2018-11-29T08:42:02.001Z,4.19
2018-11-29T08:44:28.776Z,4.25
2018-11-29T08:46:55.569Z,4.40
2018-11-29T08:49:22.353Z,4.41
2018-11-29T08:51:49.145Z,4.40
2018-11-29T08:54:15.901Z,4.46
2018-11-29T08:56:42.692Z,4.81
2018-11-29T08:59:09.457Z,4.83
2018-11-29T09:01:36.254Z,5.01
2018-11-29T09:04:03.017Z,5.15
2018-11-29T09:06:29.793Z,5.23
2018-11-29T09:08:56.572Z,5.08
2018-11-29T09:11:23.333Z,5.18
2018-11-29T09:13:50.121Z,5.16
2018-11-29T09:16:16.892Z,5.27
2018-11-29T09:18:43.685Z,5.41
2018-11-29T09:21:10.453Z,5.28
2018-11-29T09:23:37.354Z,5.64
2018-11-29T09:26:04.485Z,5.53
2018-11-29T09:28:31.277Z,5.64
2018-11-29T09:30:58.046Z,5.62
2018-11-29T09:33:24.844Z,5.71
2018-11-29T09:35:51.624Z,5.78
2018-11-29T09:38:18.402Z,5.70
2018-11-29T09:40:45.185Z,5.62
2018-11-29T09:43:11.976Z,5.75
2018-11-29T09:45:38.756Z,5.80
2018-11-29T09:48:05.608Z,5.83
2018-11-29T09:50:32.372Z,5.87
2018-11-29T09:52:59.156Z,5.87
2018-11-29T09:55:25.936Z,5.87
2018-11-29T09:57:52.734Z,5.86
2018-11-29T10:00:27.887Z,5.99
2018-11-29T10:02:53.917Z,6.10
2018-11-29T10:05:20.700Z,6.16
2018-11-29T10:07:47.493Z,6.21
2018-11-29T10:10:14.276Z,6.22
2018-11-29T10:12:41.077Z,6.24
2018-11-29T10:15:10.753Z,5.99
2018-11-29T10:17:37.593Z,6.13
2018-11-29T10:20:13.476Z,6.10
2018-11-29T10:22:41.128Z,6.14
2018-11-29T10:25:11.844Z,6.24
2018-11-29T10:27:38.765Z,6.23
2018-11-29T10:30:10.253Z,6.28
2018-11-29T10:32:37.021Z,6.51
2018-11-29T10:35:04.029Z,6.57
2018-11-29T10:37:30.800Z,6.70
2018-11-29T10:39:57.581Z,6.73
2018-11-29T10:42:24.369Z,6.73
2018-11-29T10:44:51.153Z,6.70
2018-11-29T10:47:17.924Z,6.64
2018-11-29T10:49:44.725Z,6.70
2018-11-29T10:52:11.488Z,6.75
2018-11-29T10:54:38.277Z,6.76
2018-11-29T10:57:05.804Z,6.93
2018-11-29T10:59:32.607Z,7.01
2018-11-29T11:02:20.155Z,7.07
2018-11-29T11:04:46.845Z,7.23
2018-11-29T11:07:13.621Z,7.13
2018-11-29T11:09:40.410Z,7.07
2018-11-29T11:12:07.191Z,7.27
2018-11-29T11:14:33.993Z,7.18
2018-11-29T11:17:00.762Z,7.53
2018-11-29T11:19:27.556Z,7.52
2018-11-29T11:21:54.334Z,7.72
2018-11-29T11:24:21.117Z,7.62
2018-11-29T11:26:47.888Z,7.83
2018-11-29T11:29:14.705Z,7.77
2018-11-29T11:31:41.498Z,7.89
2018-11-29T11:34:08.285Z,7.76
2018-11-29T11:36:35.049Z,7.94
2018-11-29T11:39:01.833Z,7.93
2018-11-29T11:41:28.605Z,7.72
2018-11-29T11:43:55.418Z,8.31
2018-11-29T11:46:22.165Z,8.06
2018-11-29T11:48:48.964Z,7.80
2018-11-29T11:51:15.840Z,7.82
2018-11-29T11:53:42.626Z,7.50
2018-11-29T11:56:09.396Z,7.73
2018-11-29T11:58:36.270Z,7.69
2018-11-29T12:01:03.076Z,7.44
2018-11-29T12:03:29.841Z,7.63
2018-11-29T12:05:56.661Z,7.64
2018-11-29T12:08:23.536Z,7.70
2018-11-29T12:10:50.374Z,7.27
2018-11-29T12:13:17.176Z,7.79
2018-11-29T12:15:43.928Z,7.34
2018-11-29T12:18:11.877Z,7.85
2018-11-29T12:20:38.730Z,7.94
2018-11-29T12:23:06.289Z,7.73
2018-11-29T12:25:33.077Z,7.81
2018-11-29T12:27:59.874Z,7.80
2018-11-29T12:30:30.621Z,8.02
2018-11-29T12:33:01.541Z,7.77
2018-11-29T12:35:28.361Z,7.91
2018-11-29T12:37:55.132Z,7.82
2018-11-29T12:40:21.941Z,7.79
2018-11-29T12:42:48.712Z,7.62
2018-11-29T12:45:15.509Z,7.64
2018-11-29T12:47:42.642Z,7.68
2018-11-29T12:50:26.901Z,7.68
2018-11-29T12:52:53.713Z,7.41
2018-11-29T12:55:21.693Z,7.54
2018-11-29T12:58:04.347Z,7.70
2018-11-29T13:00:20.289Z,7.54
2018-11-29T13:02:57.338Z,7.61
2018-11-29T13:05:24.729Z,7.64
2018-11-29T13:07:51.503Z,7.74
2018-11-29T13:10:19.961Z,7.68
2018-11-29T13:12:46.737Z,7.80
2018-11-29T13:15:16.442Z,7.85
2018-11-29T13:17:43.192Z,7.77
2018-11-29T13:20:11.108Z,7.81
2018-11-29T13:22:37.893Z,7.80
2018-11-29T13:25:07.365Z,7.78
2018-11-29T13:27:34.125Z,7.66
2018-11-29T13:30:00.914Z,7.74
2018-11-29T13:32:27.692Z,7.72
2018-11-29T13:34:54.457Z,7.81
2018-11-29T13:37:21.310Z,7.83
2018-11-29T13:39:48.029Z,7.78
2018-11-29T13:42:14.822Z,7.51
2018-11-29T13:44:41.586Z,7.36
2018-11-29T13:47:08.365Z,7.02
2018-11-29T13:49:35.132Z,6.78
2018-11-29T13:52:02.033Z,6.94
2018-11-29T13:54:28.692Z,6.82
2018-11-29T13:56:55.480Z,7.07
2018-11-29T13:59:22.241Z,7.15
2018-11-29T14:01:49.028Z,7.26
2018-11-29T14:04:15.796Z,7.20
2018-11-29T14:06:42.577Z,7.19
2018-11-29T14:09:09.517Z,6.97
2018-11-29T14:11:36.250Z,7.13
2018-11-29T14:14:03.068Z,7.26
2018-11-29T14:16:29.937Z,7.50
2018-11-29T14:18:56.696Z,7.36
2018-11-29T14:21:23.540Z,7.28
2018-11-29T14:23:50.369Z,7.10
2018-11-29T14:26:17.233Z,7.42
2018-11-29T14:28:44.010Z,7.68
2018-11-29T14:31:10.788Z,7.32
2018-11-29T14:33:37.564Z,7.31
2018-11-29T14:36:04.366Z,7.59
2018-11-29T14:38:31.124Z,7.66
2018-11-29T14:40:57.973Z,7.16
2018-11-29T14:43:24.728Z,7.62
2018-11-29T14:45:51.508Z,7.61
2018-11-29T14:48:18.377Z,7.06
2018-11-29T14:50:45.814Z,6.80
2018-11-29T14:53:12.585Z,6.58
2018-11-29T14:55:39.716Z,6.48
2018-11-29T14:58:07.808Z,6.35
2018-11-29T15:00:34.843Z,6.28
2018-11-29T15:03:03.933Z,6.22
2018-11-29T15:05:31.207Z,6.18
2018-11-29T15:07:58.090Z,6.24
2018-11-29T15:10:24.880Z,6.82
2018-11-29T15:12:51.684Z,6.74
2018-11-29T15:15:18.558Z,6.81
2018-11-29T15:17:46.108Z,6.68
2018-11-29T15:20:16.720Z,6.79
2018-11-29T15:22:43.751Z,6.92
2018-11-29T15:25:10.496Z,6.87
2018-11-29T15:27:37.290Z,6.91
2018-11-29T15:30:09.936Z,6.91
2018-11-29T15:32:36.713Z,7.25
2018-11-29T15:35:04.224Z,6.94
2018-11-29T15:37:31.011Z,6.93
2018-11-29T15:39:57.769Z,6.73
2018-11-29T15:42:24.585Z,6.63
2018-11-29T15:44:51.429Z,6.68
2018-11-29T15:47:18.229Z,7.03
2018-11-29T15:49:45.012Z,7.29
2018-11-29T15:52:11.807Z,6.98
2018-11-29T15:54:38.593Z,6.94
2018-11-29T15:57:05.373Z,6.95
2018-11-29T15:59:32.132Z,7.01
2018-11-29T16:01:58.892Z,6.94
2018-11-29T16:04:25.766Z,6.75
2018-11-29T16:06:52.540Z,6.71
2018-11-29T16:09:19.361Z,6.49
2018-11-29T16:11:46.127Z,6.36
2018-11-29T16:14:13.064Z,6.45
2018-11-29T16:16:39.828Z,6.45
2018-11-29T16:19:06.660Z,6.59
2018-11-29T16:21:33.426Z,6.55
2018-11-29T16:24:00.210Z,6.69
2018-11-29T16:26:27.040Z,6.55
2018-11-29T16:28:53.836Z,6.13
2018-11-29T16:31:20.608Z,5.99
2018-11-29T16:33:47.388Z,5.61
2018-11-29T16:36:14.157Z,5.44
2018-11-29T16:38:40.958Z,5.50
2018-11-29T16:41:07.724Z,5.53
2018-11-29T16:43:34.517Z,5.74
2018-11-29T16:46:01.269Z,5.62
2018-11-29T16:48:28.061Z,5.82
2018-11-29T16:50:54.841Z,5.88
2018-11-29T16:53:21.625Z,5.93
2018-11-29T16:55:48.462Z,6.07
2018-11-29T16:58:17.817Z,6.18
2018-11-29T17:00:44.573Z,6.07
2018-11-29T17:03:11.376Z,6.01
2018-11-29T17:05:38.144Z,5.88
2018-11-29T17:08:05.393Z,5.95
2018-11-29T17:10:32.165Z,6.05
2018-11-29T17:13:00.465Z,6.07
2018-11-29T17:15:27.228Z,5.92
2018-11-29T17:17:54.008Z,5.74
2018-11-29T17:20:20.786Z,5.56
2018-11-29T17:22:48.668Z,5.47
2018-11-29T17:25:15.472Z,5.55
2018-11-29T17:27:42.228Z,5.43
2018-11-29T17:30:12.713Z,5.52
2018-11-29T17:32:39.573Z,5.69
2018-11-29T17:35:06.457Z,5.69
2018-11-29T17:37:33.221Z,5.71
2018-11-29T17:40:00.073Z,5.74
2018-11-29T17:42:26.837Z,5.52
2018-11-29T17:44:53.609Z,5.22
2018-11-29T17:47:20.412Z,5.09
2018-11-29T17:49:47.235Z,5.13
2018-11-29T17:52:14.021Z,5.12
2018-11-29T17:54:40.809Z,5.12
2018-11-29T17:57:07.585Z,5.05
2018-11-29T17:59:34.380Z,5.51
2018-11-29T18:02:01.149Z,5.87
2018-11-29T18:04:28.047Z,5.29
2018-11-29T18:06:54.819Z,5.15
2018-11-29T18:09:21.616Z,5.09
2018-11-29T18:11:48.388Z,4.96
2018-11-29T18:14:15.175Z,4.94
2018-11-29T18:16:41.949Z,4.94
2018-11-29T18:19:13.167Z,5.65
2018-11-29T18:21:35.554Z,5.11
2018-11-29T18:24:02.364Z,5.05
2018-11-29T18:26:29.140Z,5.00
2018-11-29T18:28:55.932Z,4.82
2018-11-29T18:31:22.688Z,5.26
2018-11-29T18:33:49.480Z,5.52
2018-11-29T18:36:16.382Z,5.34
2018-11-29T18:38:43.226Z,4.96
2018-11-29T18:41:09.868Z,4.94
2018-11-29T18:43:36.781Z,5.09
2018-11-29T18:46:03.888Z,4.69
2018-11-29T18:48:30.645Z,5.07
2018-11-29T18:50:57.428Z,4.76
2018-11-29T18:53:24.204Z,5.18
2018-11-29T18:55:51.049Z,4.83
2018-11-29T18:58:18.024Z,4.68
2018-11-29T19:00:44.850Z,4.51
2018-11-29T19:03:11.608Z,4.71
2018-11-29T19:05:38.416Z,4.23
2018-11-29T19:08:07.085Z,4.17
2018-11-29T19:10:33.966Z,4.32
2018-11-29T19:13:01.997Z,4.43
2018-11-29T19:15:28.785Z,4.93
2018-11-29T19:17:55.586Z,4.36
2018-11-29T19:20:22.364Z,4.84
2018-11-29T19:22:49.133Z,4.30
2018-11-29T19:25:16.841Z,4.94
2018-11-29T19:27:43.598Z,4.37
2018-11-29T19:30:13.748Z,4.15
2018-11-29T19:32:40.513Z,4.24
2018-11-29T19:35:08.214Z,4.63
2018-11-29T19:37:35.053Z,3.91
2018-11-29T19:40:01.874Z,3.92
2018-11-29T19:42:28.627Z,3.91
2018-11-29T19:44:55.421Z,3.61
2018-11-29T19:47:22.214Z,3.50
2018-11-29T19:49:49.017Z,3.49
2018-11-29T19:52:15.793Z,3.50
2018-11-29T19:54:42.573Z,3.44
2018-11-29T19:57:09.333Z,3.43
2018-11-29T19:59:36.187Z,3.35
2018-11-29T20:02:02.985Z,3.26
2018-11-29T20:04:29.746Z,3.20
2018-11-29T20:06:56.540Z,3.24
2018-11-29T20:09:23.304Z,3.30
2018-11-29T20:11:50.080Z,3.33
2018-11-29T20:14:16.856Z,3.43
2018-11-29T20:16:43.642Z,3.44
2018-11-29T20:19:10.409Z,3.43
2018-11-29T20:21:37.237Z,4.13
2018-11-29T20:24:04.260Z,3.56
2018-11-29T20:26:31.044Z,3.42
2018-11-29T20:28:57.808Z,3.53
2018-11-29T20:31:24.593Z,3.27
2018-11-29T20:33:51.377Z,3.43
2018-11-29T20:36:18.171Z,3.45
2018-11-29T20:38:44.932Z,3.39
2018-11-29T20:41:11.717Z,3.37
2018-11-29T20:43:38.496Z,3.29
2018-11-29T20:46:05.545Z,3.15
2018-11-29T20:48:32.336Z,3.14
2018-11-29T20:50:59.560Z,3.75
2018-11-29T20:53:32.184Z,3.23
2018-11-29T20:55:58.972Z,3.13
2018-11-29T20:58:25.817Z,2.98
2018-11-29T21:00:52.573Z,3.57
2018-11-29T21:03:19.352Z,3.10
2018-11-29T21:05:46.125Z,3.20
2018-11-29T21:08:12.941Z,2.97
2018-11-29T21:10:39.733Z,3.01
2018-11-29T21:13:07.408Z,2.77
2018-11-29T21:15:37.209Z,2.95
2018-11-29T21:18:04.392Z,2.91
2018-11-29T21:20:31.153Z,2.85
2018-11-29T21:22:58.494Z,2.92
2018-11-29T21:25:25.341Z,2.76
2018-11-29T21:27:52.120Z,2.64
2018-11-29T21:30:18.867Z,2.57
2018-11-29T21:32:45.736Z,2.69
2018-11-29T21:35:13.704Z,2.54
2018-11-29T21:37:40.512Z,2.73
2018-11-29T21:40:11.185Z,2.70
2018-11-29T21:42:37.965Z,2.57
2018-11-29T21:45:04.752Z,2.69
2018-11-29T21:47:31.525Z,3.25
2018-11-29T21:49:58.325Z,3.50
2018-11-29T21:52:25.080Z,3.73
2018-11-29T21:54:51.864Z,3.24
2018-11-29T21:57:18.629Z,3.05
2018-11-29T21:59:45.460Z,2.90
2018-11-29T22:02:12.222Z,2.91
2018-11-29T22:04:38.993Z,2.65
2018-11-29T22:07:05.756Z,2.28
2018-11-29T22:09:32.532Z,2.35
2018-11-29T22:11:59.293Z,2.54
2018-11-29T22:14:26.081Z,3.00
2018-11-29T22:16:52.845Z,2.36
2018-11-29T22:19:19.609Z,2.22
2018-11-29T22:21:46.373Z,1.93
2018-11-29T22:24:13.169Z,2.03
2018-11-29T22:26:40.009Z,2.49
2018-11-29T22:29:06.760Z,2.38
2018-11-29T22:31:33.528Z,2.64
2018-11-29T22:34:00.312Z,3.17
2018-11-29T22:36:27.068Z,2.79
2018-11-29T22:38:53.853Z,2.61
2018-11-29T22:41:20.617Z,3.09
2018-11-29T22:43:47.441Z,2.59
2018-11-29T22:46:14.208Z,2.52
2018-11-29T22:48:40.985Z,2.44
2018-11-29T22:51:07.796Z,2.07
2018-11-29T22:53:34.586Z,2.18
2018-11-29T22:56:01.407Z,2.05
2018-11-29T22:58:28.227Z,2.12
2018-11-29T23:00:55.015Z,1.92
2018-11-29T23:03:21.737Z,2.09
2018-11-29T23:05:48.546Z,1.97
2018-11-29T23:08:15.305Z,1.89
2018-11-29T23:10:42.088Z,1.80
2018-11-29T23:13:08.853Z,1.93
2018-11-29T23:15:35.672Z,2.16
2018-11-29T23:18:02.437Z,1.92
2018-11-29T23:20:29.220Z,1.88
2018-11-29T23:22:56.011Z,2.02
2018-11-29T23:25:22.780Z,2.64
2018-11-29T23:27:49.630Z,2.15
2018-11-29T23:30:16.771Z,2.19
2018-11-29T23:32:43.717Z,1.98
2018-11-29T23:35:11.356Z,2.39
2018-11-29T23:37:38.116Z,1.98
2018-11-29T23:40:07.192Z,1.74
2018-11-29T23:42:33.957Z,1.58
2018-11-29T23:45:00.753Z,1.62
2018-11-29T23:47:27.517Z,1.82
2018-11-29T23:49:54.277Z,1.94
2018-11-29T23:52:21.028Z,1.98
2018-11-29T23:54:47.828Z,1.61
2018-11-29T23:57:14.595Z,1.64
2018-11-29T23:59:41.361Z,1.69
